Flight Track Log - Related Links

Times and Time Zones

All times are in EDT time to prevent confusion due to time zone crossing. See the FLG3432 flight status page for this flight to view local times or setup timezone preferences in your user account.

Time Position Orientation Groundspeed Altitude Reporting Facility
EDT Latitude Longitude Course Direction KTS MPH feet Rate Location/Type
Mon 06:29:35 AM 42.7714 -73.8061 284° West 161 185 1,200  Level Boston Center
Mon 06:30:42 AM 42.8275 -73.8189 351° North 193 222 3,700 2,186 Climbing Boston Center
Mon 06:31:44 AM 42.8792 -73.8708 324° Northwest 243 280 5,900 2,361 Climbing Boston Center
Mon 06:32:00 AM 42.8127 -74.1987 282° West  Level FlightAware Approximate
Mon 06:32:44 AM 42.9325 -73.9289 321° Northwest 243 280 8,500  Level Boston Center
Mon 06:33:00 AM 42.8337 -74.3355 283° West  Level FlightAware Approximate
Mon 06:33:44 AM 42.9900 -73.9869 324° Northwest 250 288 10,500  Level Boston Center
Mon 06:34:00 AM 42.8565 -74.4719 283° West  Level FlightAware Approximate
Mon 06:34:44 AM 43.0600 -74.0597 323° Northwest 294 338 12,200  Level Boston Center
Mon 06:35:00 AM 42.8918 -74.6128 284° West  Level FlightAware Approximate
Mon 06:35:44 AM 43.1297 -74.1358 321° Northwest 315 362 14,200  Level Boston Center
Mon 06:36:44 AM 43.1383 -74.2553 276° West 305 351 16,600 2,150 Climbing Boston Center
Mon 06:37:44 AM 43.1425 -74.3750 273° West 315 362 18,500 1,750 Climbing Boston Center
Mon 06:38:44 AM 43.1444 -74.5033 271° West 328 377 20,100 1,750 Climbing Boston Center
Mon 06:39:44 AM 43.1464 -74.6314 271° West 333 383 22,000 1,900 Climbing Boston Center
Mon 06:40:44 AM 43.1478 -74.7622 271° West 339 390 23,900 1,700 Climbing Boston Center
Mon 06:41:44 AM 43.1492 -74.8933 271° West 345 397 25,400 1,450 Climbing Boston Center
Mon 06:42:44 AM 43.1525 -75.0272 272° West 345 397 26,800 1,300 Climbing Boston Center
Mon 06:43:44 AM 43.1536 -75.1639 271° West 351 404 28,000 1,300 Climbing Boston Center
Mon 06:44:44 AM 43.1564 -75.3036 272° West 356 410 29,400 1,250 Climbing Boston Center
Mon 06:45:44 AM 43.1578 -75.4117 271° West 362 417 30,500 1,100 Climbing Boston Center
Mon 06:46:44 AM 43.1581 -75.5597 270° West 362 417 31,600 1,100 Climbing Boston Center
Mon 06:47:44 AM 43.1583 -75.6994 270° West 362 417 32,700 800 Climbing Boston Center
Mon 06:48:44 AM 43.1606 -75.8389 271° West 367 422 33,200 453 Climbing Boston Center
Mon 06:50:36 AM 43.1333 -76.0833 261° West 390 449 34,000 279 Climbing Toronto Center
Mon 06:51:36 AM 43.1500 -76.2500 278° West 390 449 34,000  Level Toronto Center
Mon 06:52:36 AM 43.1333 -76.3833 260° West 390 449 34,000  Level Toronto Center
Mon 06:53:36 AM 43.1167 -76.5333 261° West 390 449 34,000  Level Toronto Center
Mon 06:54:45 AM 43.1425 -76.7389 280° West 387 445 34,000  Level Cleveland Center
Mon 06:55:45 AM 43.1661 -76.8856 282° West 387 445 34,000  Level Cleveland Center
Mon 06:56:45 AM 43.1978 -77.0347 286° West 392 451 34,000  Level Cleveland Center
Mon 06:57:45 AM 43.2314 -77.1836 287° West 397 457 34,000  Level Cleveland Center
Mon 06:58:45 AM 43.2628 -77.3303 286° West 403 464 34,000  Level Cleveland Center
Mon 06:59:45 AM 43.2919 -77.4828 285° West 403 464 34,000  Level Cleveland Center
Mon 07:00:45 AM 43.3228 -77.6211 287° West 416 479 34,000  Level Cleveland Center
Mon 07:01:45 AM 43.3556 -77.7708 287° West 416 479 34,000  Level Cleveland Center
Mon 07:02:45 AM 43.3864 -77.9239 286° West 416 479 34,000  Level Cleveland Center
Mon 07:03:45 AM 43.4189 -78.0767 286° West 416 479 34,000  Level Cleveland Center
Mon 07:04:45 AM 43.4514 -78.2328 286° West 416 479 34,000  Level Cleveland Center
Mon 07:05:45 AM 43.4814 -78.3861 285° West 416 479 34,000  Level Cleveland Center
Mon 07:06:45 AM 43.5114 -78.5425 285° West 416 479 34,000  Level Cleveland Center
Mon 07:07:36 AM 43.5333 -78.6667 284° West 420 483 34,000  Level Toronto Center
Mon 07:08:36 AM 43.5667 -78.8333 285° West 420 483 34,000  Level Toronto Center
Mon 07:09:36 AM 43.6000 -78.9833 287° West 430 495 34,000  Level Toronto Center
Mon 07:10:36 AM 43.6167 -79.1500 278° West 430 495 34,000  Level Toronto Center
Mon 07:11:36 AM 43.6500 -79.2833 289° West 430 495 34,000  Level Toronto Center
Mon 07:12:36 AM 43.6833 -79.4667 284° West 430 495 34,000  Level Toronto Center
Mon 07:13:36 AM 43.7167 -79.6167 287° West 420 483 34,000  Level Toronto Center
Mon 07:15:36 AM 43.7667 -79.9333 282° West 430 495 34,000  Level Toronto Center
Mon 07:16:36 AM 43.8000 -80.1000 286° West 430 495 34,000  Level Toronto Center
Mon 07:17:36 AM 43.8333 -80.2500 287° West 430 495 34,000  Level Toronto Center
Mon 07:18:36 AM 43.8667 -80.4167 286° West 430 495 34,000  Level Toronto Center
Mon 07:19:36 AM 43.9000 -80.5833 286° West 430 495 34,000  Level Toronto Center
Mon 07:20:36 AM 43.9167 -80.7500 278° West 430 495 34,000  Level Toronto Center
Mon 07:21:36 AM 43.9333 -80.9000 279° West 430 495 34,000  Level Toronto Center
Mon 07:22:36 AM 43.9667 -81.0667 286° West 430 495 34,000  Level Toronto Center
Mon 07:23:36 AM 44.0000 -81.2333 286° West 430 495 34,000  Level Toronto Center
Mon 07:24:36 AM 44.0333 -81.4000 286° West 430 495 34,000  Level Toronto Center
Mon 07:25:36 AM 44.0667 -81.5667 286° West 430 495 34,000  Level Toronto Center
Mon 07:26:36 AM 44.0833 -81.7167 279° West 440 506 34,000  Level Toronto Center
Mon 07:27:36 AM 44.1167 -81.8833 286° West 440 506 34,000  Level Toronto Center
Mon 07:28:36 AM 44.1333 -82.0500 278° West 430 495 34,000  Level Toronto Center
Mon 07:29:36 AM 44.1667 -82.2167 286° West 430 495 34,000  Level Toronto Center
Mon 07:30:36 AM 44.2000 -82.3833 286° West 430 495 34,000  Level Toronto Center
Mon 07:31:04 AM 44.2114 -82.4439 285° West 435 501 34,000  Level Minneapolis Center
Mon 07:32:05 AM 44.2375 -82.6075 283° West 434 499 34,000  Level Minneapolis Center
Mon 07:32:36 AM 44.2333 -82.7000 266° West 430 495 34,000  Level Toronto Center
Mon 07:33:36 AM 44.2667 -82.8667 286° West 430 495 34,000  Level Toronto Center
Mon 07:34:36 AM 44.3000 -83.0333 286° West 420 483 34,000  Level Toronto Center
Mon 07:35:36 AM 44.3333 -83.2000 286° West 420 483 34,000  Level Toronto Center
Mon 07:36:08 AM 44.3436 -83.2789 280° West 420 483 34,000  Level Minneapolis Center
Mon 07:37:09 AM 44.3686 -83.4381 282° West 420 483 34,000  Level Minneapolis Center
Mon 07:38:10 AM 44.3922 -83.5983 282° West 422 486 34,000  Level Minneapolis Center
Mon 07:39:11 AM 44.4164 -83.7581 282° West 422 486 34,000  Level Minneapolis Center
Mon 07:40:12 AM 44.4403 -83.9200 282° West 424 488 34,000  Level Minneapolis Center
Mon 07:41:13 AM 44.4644 -84.0819 282° West 426 490 34,000  Level Minneapolis Center
Mon 07:42:14 AM 44.4878 -84.2431 282° West 425 489 34,000  Level Minneapolis Center
Mon 07:43:15 AM 44.5114 -84.4053 282° West 425 489 34,000  Level Minneapolis Center
Mon 07:44:16 AM 44.5350 -84.5664 282° West 423 487 34,000  Level Minneapolis Center
Mon 07:45:17 AM 44.5572 -84.7239 281° West 415 478 34,000  Level Minneapolis Center
Mon 07:46:18 AM 44.5781 -84.8797 281° West 409 471 34,000  Level Minneapolis Center
Mon 07:47:19 AM 44.5539 -85.0814 261° West 460 529 34,000  Level Minneapolis Center
Mon 07:48:20 AM 44.4711 -85.2403 234° Southwest 496 571 34,000  Level Minneapolis Center
Mon 07:49:21 AM 44.3836 -85.3983 232° Southwest 508 585 34,000  Level Minneapolis Center
Mon 07:50:22 AM 44.3556 -85.5700 257° West 453 521 34,000  Level Minneapolis Center
Mon 07:51:23 AM 44.4022 -85.6997 297° West 380 437 34,000  Level Minneapolis Center
Mon 07:52:24 AM 44.4697 -85.8017 313° West 358 412 34,000  Level Minneapolis Center
Mon 07:53:25 AM 44.5347 -85.9031 312° West 352 405 34,000  Level Minneapolis Center
Mon 07:54:26 AM 44.5972 -86.0053 311° West 345 397 34,000  Level Minneapolis Center
Mon 07:55:27 AM 44.6272 -86.1469 287° West 377 434 34,000  Level Minneapolis Center
Mon 07:56:28 AM 44.6383 -86.3072 276° West 403 464 34,000  Level Minneapolis Center
Mon 07:57:29 AM 44.6497 -86.4675 276° West 409 471 34,000  Level Minneapolis Center
Mon 07:58:30 AM 44.6611 -86.6275 276° West 412 474 34,000  Level Minneapolis Center
Mon 07:59:31 AM 44.6711 -86.7861 275° West 407 468 34,000  Level Minneapolis Center
Mon 08:00:32 AM 44.6828 -86.9439 276° West 406 467 34,000  Level Minneapolis Center
Mon 08:01:33 AM 44.6936 -87.1025 276° West 408 470 34,000  Level Minneapolis Center
Mon 08:02:34 AM 44.7044 -87.2597 276° West 406 467 34,000  Level Minneapolis Center
Mon 08:03:35 AM 44.7139 -87.4175 275° West 407 468 34,000  Level Minneapolis Center
Mon 08:04:36 AM 44.7250 -87.6061 275° West 405 466 34,000  Level Minneapolis Center
Mon 08:05:37 AM 44.7353 -87.7653 275° West 406 467 34,000  Level Minneapolis Center
Mon 08:06:38 AM 44.7442 -87.9222 275° West 404 465 34,000  Level Minneapolis Center
Mon 08:07:39 AM 44.7533 -88.0794 275° West 403 464 34,000  Level Minneapolis Center
Mon 08:08:40 AM 44.7622 -88.2361 275° West 404 465 34,000  Level Minneapolis Center
Mon 08:09:42 AM 44.7708 -88.3900 275° West 404 465 34,000  Level Minneapolis Center
Mon 08:10:43 AM 44.7803 -88.5469 275° West 404 465 34,000  Level Minneapolis Center
Mon 08:11:44 AM 44.7878 -88.7047 274° West 405 466 34,000 -393 Level Minneapolis Center
Mon 08:12:45 AM 44.7975 -88.8914 274° West 408 470 33,200 -984 Descending Minneapolis Center
Mon 08:13:46 AM 44.8056 -89.0531 274° West 413 475 32,000 -585 Descending Minneapolis Center
Mon 08:14:48 AM 44.8122 -89.2147 273° West 414 476 32,000  Level Minneapolis Center
Mon 08:15:49 AM 44.8206 -89.3725 274° West 408 470 32,000  Level Minneapolis Center
Mon 08:16:50 AM 44.8272 -89.5328 273° West 410 472 32,000  Level Minneapolis Center
Mon 08:17:51 AM 44.8339 -89.6936 273° West 412 474 32,000  Level Minneapolis Center
Mon 08:18:53 AM 44.8406 -89.8461 274° West 415 478 32,000  Level Minneapolis Center
Mon 08:19:54 AM 44.8483 -90.0425 273° West 417 480 32,000  Level Minneapolis Center
Mon 08:20:55 AM 44.8550 -90.2053 273° West 416 479 32,000  Level Minneapolis Center
Mon 08:21:57 AM 44.8617 -90.3678 273° West 416 479 32,000 -49 Level Minneapolis Center
Mon 08:22:58 AM 44.8683 -90.5336 273° West 421 484 31,900 -976 Descending Minneapolis Center
Mon 08:24:00 AM 44.8739 -90.6933 273° West 412 474 30,000 -1,659 Descending Minneapolis Center
Mon 08:25:01 AM 44.8764 -90.8169 272° West 398 458 28,500 -1,902 Descending Minneapolis Center
Mon 08:26:03 AM 44.8822 -91.0011 273° West 386 444 26,100 -2,081 Descending Minneapolis Center
Mon 08:27:05 AM 44.8867 -91.1503 272° West 383 441 24,200 -1,854 Descending Minneapolis Center
Mon 08:28:06 AM 44.8919 -91.2953 273° West 376 433 22,300 -1,854 Descending Minneapolis Center
Mon 08:29:08 AM 44.8942 -91.4311 271° West 359 413 20,400 -2,000 Descending Minneapolis Center
Mon 08:30:09 AM 44.9192 -91.5903 283° West 359 413 18,200 -1,902 Descending Minneapolis Center
Mon 08:31:11 AM 44.9453 -91.7256 285° West 355 409 16,500 -1,742 Descending Minneapolis Center
Mon 08:32:13 AM 44.9686 -91.8569 284° West 349 402 14,600 -1,854 Descending Minneapolis Center
Mon 08:33:14 AM 44.9936 -91.9844 286° West 339 390 12,700 -1,707 Descending Minneapolis Center
Mon 08:34:16 AM 45.0158 -92.1094 284° West 333 383 11,100 -823 Descending Minneapolis Center
Mon 08:35:18 AM 45.0389 -92.2331 285° West 330 380 11,000 -49 Descending Minneapolis Center
Mon 08:36:19 AM 45.0372 -92.3594 269° West 335 386 11,000  Level Minneapolis Center
Mon 08:37:21 AM 45.0131 -92.5158 258° West 341 392 11,000  Level Minneapolis Center
Mon 08:38:23 AM 44.9931 -92.6447 258° West 337 388 11,000 -194 Level Minneapolis Center
Mon 08:39:25 AM 44.9722 -92.7706 257° West 329 379 10,600 -780 Descending Minneapolis Center
Mon 08:40:26 AM 44.9550 -92.8769 257° West 279 321 9,400 -1,220 Descending Minneapolis Center
Mon 08:41:28 AM 44.9392 -92.9744 257° West 258 297 8,100 -677 Descending Minneapolis Center
Mon 08:42:30 AM 44.9306 -93.0725 263° West 259 298 8,000 -435 Descending Minneapolis Center
Mon 08:43:32 AM 44.9714 -93.1769 299° West 257 296 7,200 -927 Descending Minneapolis Center
Mon 08:44:33 AM 45.0064 -93.2639 300° West 257 296 6,100 -1,073 Descending Minneapolis Center
Mon 08:45:35 AM 45.0411 -93.3433 302° West 242 278 5,000 -1,113 Descending Minneapolis Center
Mon 08:46:37 AM 45.0189 -93.3919 237° Southwest 201 231 3,800 -823 Descending Minneapolis Center
Mon 08:47:39 AM 44.9714 -93.3536 150° Southeast 195 224 3,300 -634 Descending Minneapolis Center
Mon 08:48:40 AM 44.9322 -93.3117 143° Southeast 143 165 2,500 -787 Descending Minneapolis Center

Login

Don't have an account? Register now (free) for customized features, flight alerts, and more!